This is the latest recevied weather packets stored in our database for station/object LA1HSA-13. If no packets are shown the sender has not sent any weather packets the latest 10 day(s).
| Time | Temp. | Humidity | Pressure | Rain* | Wind** | Luminosity | Snow |
|---|---|---|---|---|---|---|---|
| 1777926003 | 3.89° C | 86% | 1005.3 hPa | 0 mm | - | - | - |
| 1777925404 | 3.89° C | 88% | 1005 hPa | 0 mm | - | - | - |
| 1777924803 | 4.44° C | 88% | 1005 hPa | 0.51 mm | - | - | - |
| 1777924204 | 4.44° C | 87% | 1005 hPa | 0.51 mm | - | - | - |
| 1777923603 | 4.44° C | 91% | 1005.1 hPa | 0.51 mm | - | - | - |
| 1777923004 | 4.44° C | 92% | 1004.8 hPa | 0.51 mm | - | - | - |
| 1777922403 | 5.56° C | 92% | 1004.4 hPa | 0.51 mm | - | - | - |
| 1777921803 | 5.56° C | 89% | 1004.2 hPa | 0.51 mm | - | - | - |
| 1777921203 | 10° C | 60% | 1003.8 hPa | 0 mm | - | - | - |
| 1777920603 | 10° C | 60% | 1003 hPa | 0 mm | - | - | - |
| 1777920003 | 10° C | 60% | 1002.9 hPa | 0 mm | - | - | - |
| 1777919403 | 10.56° C | 60% | 1002.9 hPa | 0 mm | - | - | - |
| 1777918803 | 10.56° C | 58% | 1003.1 hPa | 0 mm | - | - | - |
| 1777918203 | 10.56° C | 56% | 1002.8 hPa | 0 mm | - | - | - |
| 1777917603 | 11.11° C | 54% | 1002.9 hPa | 0 mm | - | - | - |
| 1777917003 | 11.67° C | 51% | 1003.1 hPa | 0 mm | - | - | - |
| 1777916403 | 11.67° C | 49% | 1002.8 hPa | 0 mm | - | - | - |
| 1777915803 | 12.22° C | 49% | 1003.1 hPa | 0 mm | - | - | - |
| 1777915203 | 11.67° C | 48% | 1002.8 hPa | 0 mm | - | - | - |
| 1777914603 | 12.22° C | 48% | 1003.1 hPa | 0 mm | - | - | - |
| 1777914004 | 12.78° C | 46% | 1002.9 hPa | 0 mm | - | - | - |
| 1777913404 | 12.78° C | 44% | 1003.1 hPa | 0 mm | - | - | - |
| 1777912804 | 13.33° C | 44% | 1003.1 hPa | 0 mm | - | - | - |
| 1777912203 | 13.33° C | 43% | 1002.9 hPa | 0 mm | - | - | - |
| 1777911603 | 13.33° C | 41% | 1003.1 hPa | 0 mm | - | - | - |
* Rain latest hour (hover to see other rain measurements)
** Current wind speed in m/s (hover to see current wind gust speed)